Time;durP1;ratioP1;P1;durP2;ratioP2;P2;SDS_P1;SDS_P2;PMS_P1;PMS_P2;Temp;Humidity;BMP_temperature;BMP_pressure;BME280_temperature;BME280_humidity;BME280_pressure;Samples;Min_cycle;Max_cycle;Signal;HPM_P1;HPM_P2
2021/04/05 00:00:21;;;;;;;;;;;;;;;;;;;;;
2021/04/05 00:02:55;;;;;;;14.53;9.07;;;7.00;99.90;;;;;;5008817;28;21269;-59
2021/04/05 00:05:41;;;;;;;16.30;10.67;;;7.10;99.90;;;;;;5002537;28;20637;-57
2021/04/05 00:08:09;;;;;;;14.47;10.00;;;7.00;99.90;;;;;;5000799;28;21060;-58
2021/04/05 00:10:55;;;;;;;16.83;10.10;;;7.10;99.90;;;;;;5002442;28;20998;-59
2021/04/05 00:13:30;;;;;;;16.20;10.60;;;7.10;99.90;;;;;;5007514;28;20702;-58
2021/04/05 00:16:01;;;;;;;17.00;10.50;;;7.00;99.90;;;;;;5004702;28;20740;-58
2021/04/05 00:18:31;;;;;;;16.57;10.37;;;7.00;99.90;;;;;;5002598;28;20623;-57
2021/04/05 00:21:07;;;;;;;13.10;9.40;;;7.00;99.90;;;;;;4997187;28;20649;-57
2021/04/05 00:23:46;;;;;;;18.23;10.73;;;7.00;99.90;;;;;;5006703;28;21176;-57
2021/04/05 00:26:14;;;;;;;17.27;11.10;;;7.00;99.90;;;;;;5000071;28;20583;-59
2021/04/05 00:28:44;;;;;;;17.10;11.87;;;7.10;99.90;;;;;;5003096;28;21381;-59
2021/04/05 00:31:23;;;;;;;17.47;11.23;;;7.00;99.90;;;;;;5001468;28;20657;-59
2021/04/05 00:34:02;;;;;;;20.47;11.17;;;7.10;99.90;;;;;;5003382;28;20689;-58
2021/04/05 00:36:35;;;;;;;14.70;11.87;;;7.10;99.90;;;;;;5016679;28;20638;-57
2021/04/05 00:39:01;;;;;;;18.37;11.50;;;7.10;99.90;;;;;;5012718;28;23851;-58
2021/04/05 00:41:31;;;;;;;17.60;11.70;;;7.10;99.90;;;;;;5005220;28;20716;-57
2021/04/05 00:44:00;;;;;;;14.93;11.30;;;7.10;99.90;;;;;;5007362;28;20184;-58
2021/04/05 00:46:35;;;;;;;21.03;11.40;;;7.10;99.90;;;;;;5005870;28;21228;-59
2021/04/05 00:49:12;;;;;;;17.20;12.23;;;7.20;99.90;;;;;;5004104;28;20595;-58
2021/04/05 00:51:39;;;;;;;17.67;13.20;;;7.20;99.90;;;;;;5001454;28;21251;-58
2021/04/05 00:54:11;;;;;;;23.67;13.83;;;7.20;99.90;;;;;;5005072;28;20606;-58
2021/04/05 00:56:37;;;;;;;16.87;12.03;;;7.20;99.90;;;;;;5001040;28;20724;-58
2021/04/05 00:59:08;;;;;;;19.87;12.17;;;7.30;99.90;;;;;;5003404;28;21070;-57
2021/04/05 01:01:38;;;;;;;18.23;12.77;;;7.20;99.90;;;;;;5001054;28;22810;-57
2021/04/05 01:04:06;;;;;;;20.27;13.60;;;7.20;99.90;;;;;;5002184;28;20867;-64
2021/04/05 01:06:36;;;;;;;19.70;13.70;;;7.30;99.90;;;;;;5000140;28;20650;-65
2021/04/05 01:09:07;;;;;;;25.00;14.63;;;7.40;99.90;;;;;;5002422;28;20606;-64
2021/04/05 01:11:40;;;;;;;18.60;13.57;;;7.40;99.90;;;;;;5000285;28;20745;-61
2021/04/05 01:14:08;;;;;;;18.33;13.87;;;7.40;99.90;;;;;;5004328;28;21234;-61
2021/04/05 01:16:45;;;;;;;20.70;14.30;;;7.30;99.90;;;;;;5016500;28;20654;-62
2021/04/05 01:19:15;;;;;;;19.10;14.00;;;7.30;99.90;;;;;;5000965;28;21307;-63
2021/04/05 01:21:49;;;;;;;24.53;15.13;;;7.40;99.90;;;;;;5007982;28;21360;-61
2021/04/05 01:24:15;;;;;;;21.10;15.00;;;7.30;99.90;;;;;;5005555;28;20896;-65
2021/04/05 01:26:40;;;;;;;20.67;15.07;;;7.30;99.90;;;;;;5000610;28;20772;-62
2021/04/05 01:29:10;;;;;;;19.53;15.20;;;7.30;99.90;;;;;;5018680;28;20296;-66
2021/04/05 01:34:39;;;;;;;20.70;15.90;;;7.40;99.90;;;;;;4998289;28;20705;-65
2021/04/05 01:37:23;;;;;;;25.43;14.87;;;7.30;99.90;;;;;;5001602;28;20754;-63
2021/04/05 01:40:10;;;;;;;20.00;15.27;;;7.30;99.90;;;;;;4999360;28;20664;-63
2021/04/05 01:42:40;;;;;;;20.77;16.00;;;7.40;99.90;;;;;;5000687;28;20765;-63
2021/04/05 01:45:18;;;;;;;20.67;14.10;;;7.40;99.90;;;;;;4999609;28;21262;-65
2021/04/05 01:47:44;;;;;;;22.93;16.40;;;7.40;99.90;;;;;;5000006;28;20649;-62
2021/04/05 01:50:19;;;;;;;21.80;14.60;;;7.40;99.90;;;;;;4998152;28;20650;-61
2021/04/05 01:52:50;;;;;;;17.83;14.30;;;7.40;99.90;;;;;;4997394;28;20688;-61
2021/04/05 01:55:29;;;;;;;21.77;15.70;;;7.40;99.90;;;;;;4997919;28;20622;-62
2021/04/05 01:58:18;;;;;;;23.80;14.93;;;7.40;99.90;;;;;;5018392;28;21324;-61
2021/04/05 02:00:54;;;;;;;22.70;14.90;;;7.40;99.90;;;;;;4999710;28;21035;-65
2021/04/05 02:03:33;;;;;;;24.30;15.47;;;7.40;99.90;;;;;;5003257;28;20645;-65
2021/04/05 02:06:05;;;;;;;19.30;14.57;;;7.40;99.90;;;;;;4999374;28;20591;-64
2021/04/05 02:08:35;;;;;;;19.03;15.00;;;7.50;99.90;;;;;;5000251;28;20672;-62
2021/04/05 02:11:09;;;;;;;22.20;15.07;;;7.50;99.90;;;;;;4999676;28;20689;-62
2021/04/05 02:13:37;;;;;;;20.07;14.00;;;7.50;99.90;;;;;;5004741;28;20767;-62
2021/04/05 02:16:15;;;;;;;17.70;13.97;;;7.50;99.90;;;;;;4995360;28;20639;-64
2021/04/05 02:18:46;;;;;;;19.57;15.13;;;7.50;99.90;;;;;;4999198;28;20636;-65
2021/04/05 02:21:19;;;;;;;19.07;14.20;;;7.50;99.90;;;;;;5001727;28;20687;-62
2021/04/05 02:23:59;;;;;;;24.93;14.50;;;7.50;99.90;;;;;;5004966;28;21158;-61
2021/04/05 02:26:30;;;;;;;21.00;14.37;;;7.40;99.90;;;;;;4994434;28;20752;-65
2021/04/05 02:29:04;;;;;;;25.00;15.63;;;7.40;99.90;;;;;;4997638;28;20614;-65
2021/04/05 02:31:51;;;;;;;19.03;15.07;;;7.40;99.90;;;;;;4995499;28;20629;-63
2021/04/05 02:34:26;;;;;;;;;;;;;;;;;;;;;
2021/04/05 02:36:57;;;;;;;18.50;13.60;;;7.50;99.90;;;;;;4999700;28;20617;-63
2021/04/05 02:39:25;;;;;;;20.63;13.63;;;7.60;99.90;;;;;;4994165;28;22396;-63
2021/04/05 02:41:58;;;;;;;18.67;14.17;;;7.50;99.90;;;;;;4996896;28;20732;-59
2021/04/05 02:44:27;;;;;;;19.97;14.53;;;7.50;99.90;;;;;;4998126;28;20605;-58
2021/04/05 02:46:55;;;;;;;20.87;13.80;;;7.50;99.90;;;;;;5002377;28;20632;-58
2021/04/05 02:49:34;;;;;;;20.67;13.53;;;7.50;99.90;;;;;;5002876;28;20641;-58
2021/04/05 02:52:03;;;;;;;18.90;13.67;;;7.60;99.90;;;;;;4999118;28;20638;-58
2021/04/05 02:54:33;;;;;;;25.37;14.80;;;7.60;99.90;;;;;;5001264;28;20621;-59
2021/04/05 02:57:24;;;;;;;25.53;13.90;;;7.50;99.90;;;;;;5005461;28;20643;-58
2021/04/05 02:59:58;;;;;;;20.80;13.23;;;7.60;99.90;;;;;;4996733;28;20676;-58
2021/04/05 03:02:30;;;;;;;17.03;12.80;;;7.60;99.90;;;;;;4987214;28;20635;-65
2021/04/05 03:05:03;;;;;;;17.33;13.00;;;7.50;99.90;;;;;;4983045;28;21088;-59
2021/04/05 03:07:31;;;;;;;24.17;14.57;;;7.60;99.90;;;;;;4982510;28;20665;-59
2021/04/05 03:10:05;;;;;;;21.80;13.00;;;7.60;99.90;;;;;;4983189;28;21085;-59
2021/04/05 03:12:36;;;;;;;21.13;12.97;;;7.50;99.90;;;;;;4994314;28;20638;-58
2021/04/05 03:15:07;;;;;;;21.40;13.00;;;7.50;99.90;;;;;;5000150;28;20946;-59
2021/04/05 03:17:42;;;;;;;20.43;12.53;;;7.50;99.90;;;;;;5019632;28;21578;-59
2021/04/05 03:20:21;;;;;;;17.97;12.33;;;7.60;99.90;;;;;;5006587;28;20704;-59
2021/04/05 03:22:58;;;;;;;17.27;12.80;;;7.50;99.90;;;;;;5002398;28;21122;-58
2021/04/05 03:25:35;;;;;;;20.13;13.90;;;7.50;99.90;;;;;;5020088;28;20669;-58
2021/04/05 03:28:24;;;;;;;23.67;14.43;;;7.40;99.90;;;;;;5011491;28;20691;-58
2021/04/05 03:31:16;;;;;;;23.03;13.70;;;7.40;99.90;;;;;;5001703;28;20646;-57
2021/04/05 03:33:56;;;;;;;21.80;14.17;;;7.30;99.90;;;;;;5002776;28;20702;-57
2021/04/05 03:36:42;;;;;;;21.93;14.17;;;7.30;99.90;;;;;;5001394;28;21040;-59
2021/04/05 03:39:09;;;;;;;22.30;14.73;;;7.30;99.90;;;;;;5005166;28;20799;-58
2021/04/05 03:41:43;;;;;;;23.90;15.37;;;7.30;99.90;;;;;;5023309;28;20610;-59
2021/04/05 03:44:33;;;;;;;17.47;14.30;;;7.30;99.90;;;;;;5018334;28;20834;-58
2021/04/05 03:47:11;;;;;;;19.83;14.17;;;7.20;99.90;;;;;;5008270;28;20668;-59
2021/04/05 03:50:03;;;;;;;22.83;15.50;;;7.30;99.90;;;;;;5008915;28;22826;-59
2021/04/05 03:52:44;;;;;;;22.17;15.20;;;7.20;99.90;;;;;;5003841;28;20681;-59
2021/04/05 03:55:20;;;;;;;19.40;13.87;;;7.00;99.90;;;;;;5008830;28;20598;-60
2021/04/05 03:57:52;;;;;;;20.73;15.13;;;7.10;99.90;;;;;;5008232;28;20620;-58
2021/04/05 04:00:39;;;;;;;21.10;14.40;;;7.10;99.90;;;;;;5003552;28;20646;-59
2021/04/05 04:03:08;;;;;;;20.60;14.70;;;7.20;99.90;;;;;;5004871;28;20642;-59
2021/04/05 04:05:50;;;;;;;19.17;14.80;;;7.10;99.90;;;;;;5003593;28;20622;-58
2021/04/05 04:08:38;;;;;;;;;;;;;;;;;;;;;
2021/04/05 04:11:00;;;;;;;18.73;14.00;;;7.10;99.90;;;;;;5004341;28;21874;-59
2021/04/05 04:13:29;;;;;;;16.97;13.03;;;7.10;99.90;;;;;;5007041;28;21190;-59
2021/04/05 04:15:59;;;;;;;17.03;13.60;;;7.10;99.90;;;;;;5003184;28;20951;-59
2021/04/05 04:18:46;;;;;;;5.80;4.17;;;6.90;99.90;;;;;;5003167;28;20643;-58
2021/04/05 04:21:23;;;;;;;3.87;2.20;;;6.80;99.90;;;;;;4995928;28;21577;-58
2021/04/05 04:24:00;;;;;;;1.40;1.30;;;6.60;99.90;;;;;;5003803;28;20645;-59
2021/04/05 04:26:26;;;;;;;1.83;1.10;;;6.50;99.90;;;;;;5003186;28;20590;-58
2021/04/05 04:28:57;;;;;;;0.90;0.87;;;6.40;99.90;;;;;;5003343;28;20665;-58
2021/04/05 04:31:28;;;;;;;1.00;0.60;;;6.30;99.90;;;;;;5000751;28;20224;-57
2021/04/05 04:33:56;;;;;;;0.83;0.70;;;6.10;99.90;;;;;;5015256;28;20633;-60
2021/04/05 04:36:27;;;;;;;0.60;0.60;;;6.10;99.90;;;;;;5003072;28;20692;-57
2021/04/05 04:38:58;;;;;;;1.10;0.70;;;5.90;99.90;;;;;;5002077;28;20627;-58
2021/04/05 04:41:35;;;;;;;0.77;0.60;;;5.90;99.90;;;;;;4995739;28;20972;-57
2021/04/05 04:44:09;;;;;;;0.70;0.70;;;5.90;99.90;;;;;;5005139;28;21009;-57
2021/04/05 04:46:38;;;;;;;2.00;1.00;;;5.90;99.90;;;;;;5002837;28;20598;-58
2021/04/05 04:49:20;;;;;;;1.30;1.20;;;5.70;99.90;;;;;;5003240;28;20626;-57
2021/04/05 04:51:55;;;;;;;1.87;0.90;;;5.60;99.90;;;;;;5002610;28;20670;-58
2021/04/05 04:54:21;;;;;;;1.47;0.90;;;5.70;99.90;;;;;;5001035;28;20767;-58
2021/04/05 04:57:04;;;;;;;3.60;1.17;;;5.70;99.90;;;;;;5000045;28;20674;-58
2021/04/05 04:59:39;;;;;;;3.73;1.10;;;5.90;99.90;;;;;;5001224;28;21158;-59
2021/04/05 05:02:07;;;;;;;1.13;1.03;;;5.80;99.90;;;;;;5000450;28;21219;-58
2021/04/05 05:04:45;;;;;;;1.93;1.17;;;5.80;99.90;;;;;;5001219;28;20676;-57
2021/04/05 05:07:16;;;;;;;1.20;1.10;;;5.80;99.90;;;;;;4999247;28;21479;-58
2021/04/05 05:09:50;;;;;;;1.80;1.60;;;5.80;99.90;;;;;;4996701;28;20843;-58
2021/04/05 05:12:21;;;;;;;3.03;1.20;;;5.80;99.90;;;;;;5000445;28;21662;-58
2021/04/05 05:14:55;;;;;;;2.53;1.07;;;5.80;99.90;;;;;;5000504;28;20690;-66
2021/04/05 05:17:33;;;;;;;3.63;1.43;;;5.90;99.90;;;;;;5002318;28;20640;-66
2021/04/05 05:20:05;;;;;;;3.10;1.50;;;5.90;99.90;;;;;;4999858;28;20735;-63
2021/04/05 05:22:43;;;;;;;2.70;1.60;;;5.80;99.90;;;;;;5000244;28;20715;-64
2021/04/05 05:25:10;;;;;;;2.60;1.80;;;5.70;99.90;;;;;;5006183;28;20615;-65
2021/04/05 05:27:49;;;;;;;2.67;1.67;;;5.80;99.90;;;;;;5003077;28;23163;-64
2021/04/05 05:30:30;;;;;;;3.20;2.43;;;5.80;99.90;;;;;;5006291;28;20704;-65
2021/04/05 05:33:21;;;;;;;4.43;1.40;;;5.60;99.90;;;;;;4986502;28;20964;-65
2021/04/05 05:35:54;;;;;;;2.67;1.37;;;5.50;99.90;;;;;;4983022;28;20727;-65
2021/04/05 05:38:22;;;;;;;3.63;1.37;;;5.50;99.90;;;;;;4985968;28;20798;-61
2021/04/05 05:40:53;;;;;;;4.30;1.30;;;5.50;99.90;;;;;;4983291;28;20644;-63
2021/04/05 05:43:34;;;;;;;3.47;1.60;;;5.60;99.90;;;;;;5003173;28;20626;-66
2021/04/05 05:47:01;;;;;;;5.07;1.83;;;5.50;99.90;;;;;;5004359;28;21521;-62
2021/04/05 05:49:46;;;;;;;3.17;1.60;;;5.40;99.90;;;;;;4997673;28;21095;-65
2021/04/05 05:52:32;;;;;;;5.43;1.70;;;5.20;99.90;;;;;;5004122;28;20661;-62
2021/04/05 05:55:16;;;;;;;2.30;1.60;;;5.10;99.90;;;;;;5005621;28;21082;-62
2021/04/05 05:58:34;;;;;;;9.43;2.50;;;5.10;99.90;;;;;;5006861;28;20638;-67
2021/04/05 06:01:34;;;;;;;5.47;1.60;;;5.00;99.90;;;;;;4980293;28;20661;-62
2021/04/05 06:04:15;;;;;;;4.63;1.80;;;5.10;99.90;;;;;;4984774;28;21107;-66
2021/04/05 06:07:06;;;;;;;2.73;1.47;;;5.00;99.90;;;;;;4990119;28;20965;-65
2021/04/05 06:09:56;;;;;;;6.57;1.63;;;4.90;99.90;;;;;;4993884;28;21300;-62
2021/04/05 06:12:34;;;;;;;3.90;1.23;;;4.90;99.90;;;;;;5014942;28;20645;-64
2021/04/05 06:15:22;;;;;;;3.70;1.43;;;4.80;99.90;;;;;;5015136;28;22854;-63
2021/04/05 06:18:11;;;;;;;3.20;1.10;;;4.60;99.90;;;;;;4998926;28;20635;-62
2021/04/05 06:20:39;;;;;;;7.50;1.70;;;4.60;99.90;;;;;;5011237;28;21306;-66
2021/04/05 06:23:23;;;;;;;3.53;1.17;;;4.60;99.90;;;;;;4999390;28;20708;-73
2021/04/05 06:26:11;;;;;;;5.73;1.70;;;4.60;99.90;;;;;;5004835;28;20664;-67
2021/04/05 06:28:54;;;;;;;6.10;2.33;;;4.60;99.90;;;;;;5026253;28;22181;-65
2021/04/05 06:31:30;;;;;;;4.17;1.80;;;4.80;99.90;;;;;;5010222;28;22657;-65
2021/04/05 06:34:09;;;;;;;4.80;1.83;;;4.70;99.90;;;;;;5012404;28;22487;-65
2021/04/05 06:36:48;;;;;;;4.40;1.47;;;4.70;99.90;;;;;;5014597;28;20606;-66
2021/04/05 06:39:22;;;;;;;4.53;1.50;;;4.70;99.90;;;;;;5014897;28;20657;-67
2021/04/05 06:42:26;;;;;;;3.67;1.60;;;4.70;99.90;;;;;;5024367;28;20725;-68
2021/04/05 06:45:27;;;;;;;3.57;1.70;;;4.60;99.90;;;;;;5023036;28;20649;-66
2021/04/05 06:48:20;;;;;;;2.33;1.10;;;4.50;99.90;;;;;;5013047;28;20621;-64
2021/04/05 06:51:22;;;;;;;3.03;0.93;;;4.40;99.90;;;;;;5011634;28;21038;-63
2021/04/05 06:54:10;;;;;;;4.27;1.77;;;4.40;99.90;;;;;;5009894;28;20653;-64
2021/04/05 06:56:58;;;;;;;3.63;2.00;;;4.50;99.90;;;;;;5010139;28;20660;-65
2021/04/05 07:00:01;;;;;;;7.13;1.30;;;4.40;99.90;;;;;;5004619;28;20650;-67
2021/04/05 07:03:08;;;;;;;4.17;1.50;;;4.40;99.90;;;;;;4996984;28;20648;-66
2021/04/05 07:05:52;;;;;;;3.50;1.30;;;4.30;99.90;;;;;;5009291;28;21018;-67
2021/04/05 07:08:40;;;;;;;1.97;1.00;;;4.40;99.90;;;;;;5000088;28;20629;-66
2021/04/05 07:11:13;;;;;;;2.33;1.27;;;4.40;99.90;;;;;;5003002;28;20685;-65
2021/04/05 07:14:02;;;;;;;2.23;1.47;;;4.60;99.90;;;;;;5000620;28;20661;-66
2021/04/05 07:16:30;;;;;;;7.90;1.70;;;4.60;99.90;;;;;;4999642;28;21261;-64
2021/04/05 07:19:18;;;;;;;3.13;1.40;;;4.70;99.90;;;;;;5004124;28;21102;-61
2021/04/05 07:22:18;;;;;;;4.37;1.67;;;4.70;99.90;;;;;;5001505;28;20638;-67
2021/04/05 07:25:06;;;;;;;2.30;1.30;;;4.70;99.90;;;;;;5004069;28;20598;-64
2021/04/05 07:28:02;;;;;;;2.90;1.37;;;4.70;99.90;;;;;;4997886;28;20669;-67
2021/04/05 07:30:41;;;;;;;2.97;1.27;;;4.80;99.90;;;;;;5011196;28;20938;-65
2021/04/05 07:33:22;;;;;;;3.90;1.13;;;4.60;99.90;;;;;;5000494;28;20664;-58
2021/04/05 07:35:50;;;;;;;3.50;1.37;;;4.50;99.90;;;;;;4996056;28;20590;-58
2021/04/05 07:38:34;;;;;;;5.03;1.53;;;4.40;99.90;;;;;;5003090;28;20614;-59
2021/04/05 07:41:40;;;;;;;3.40;1.63;;;4.50;99.90;;;;;;5003550;28;20634;-58
2021/04/05 07:44:22;;;;;;;3.80;1.37;;;4.60;99.90;;;;;;5001122;28;20645;-57
2021/04/05 07:47:16;;;;;;;1.93;0.97;;;4.60;99.90;;;;;;5001551;28;20648;-58
2021/04/05 07:49:48;;;;;;;4.70;1.50;;;4.50;99.90;;;;;;4996147;28;21232;-59
2021/04/05 07:52:21;;;;;;;3.53;1.13;;;4.40;99.90;;;;;;5002228;28;21228;-57
2021/04/05 07:54:49;;;;;;;3.77;1.73;;;4.30;99.90;;;;;;5000391;28;20644;-57
2021/04/05 07:57:44;;;;;;;6.43;1.40;;;4.40;99.90;;;;;;5000249;28;20960;-59
2021/04/05 08:00:28;;;;;;;4.87;1.87;;;4.30;99.90;;;;;;5000539;28;21244;-59
2021/04/05 08:03:05;;;;;;;2.90;1.73;;;4.60;99.90;;;;;;4997908;28;20688;-58
2021/04/05 08:05:53;;;;;;;4.90;1.20;;;4.60;99.90;;;;;;5000544;28;20644;-59
2021/04/05 08:08:39;;;;;;;2.73;1.47;;;4.80;99.90;;;;;;5003215;28;20754;-58
2021/04/05 08:11:08;;;;;;;3.10;1.10;;;4.80;99.90;;;;;;5002156;28;20683;-59
2021/04/05 08:13:50;;;;;;;2.00;0.57;;;4.70;99.90;;;;;;5016155;28;21225;-59
2021/04/05 08:16:45;;;;;;;1.53;0.53;;;4.60;99.90;;;;;;5004340;28;20598;-57
2021/04/05 08:19:46;;;;;;;0.50;0.40;;;4.30;99.90;;;;;;4997968;28;21583;-58
2021/04/05 08:22:11;;;;;;;0.70;0.50;;;4.00;99.90;;;;;;4987469;28;20645;-58
2021/04/05 08:25:02;;;;;;;0.97;0.60;;;3.80;99.90;;;;;;5005703;28;20618;-57
2021/04/05 08:27:48;;;;;;;0.70;0.40;;;3.90;99.90;;;;;;5001965;28;20214;-58
2021/04/05 08:30:21;;;;;;;1.03;0.57;;;4.00;99.90;;;;;;4994825;28;20642;-58
2021/04/05 08:32:56;;;;;;;1.23;0.80;;;4.00;99.90;;;;;;5002995;28;20773;-58
2021/04/05 08:35:37;;;;;;;0.97;0.60;;;4.00;99.90;;;;;;5006711;28;20621;-57
2021/04/05 08:38:35;;;;;;;1.53;0.60;;;4.00;99.90;;;;;;5000143;28;20677;-58
2021/04/05 08:41:18;;;;;;;0.40;0.40;;;4.10;99.90;;;;;;5002267;28;20919;-58
2021/04/05 08:44:13;;;;;;;0.80;0.43;;;4.00;99.90;;;;;;4998357;28;20642;-60
2021/04/05 08:46:38;;;;;;;0.50;0.40;;;4.00;99.90;;;;;;4998926;28;21107;-64
2021/04/05 08:49:08;;;;;;;1.23;0.53;;;3.90;99.90;;;;;;5001411;28;20630;-65
2021/04/05 08:51:42;;;;;;;0.67;0.50;;;3.90;99.90;;;;;;4995216;28;20268;-65
2021/04/05 08:54:10;;;;;;;0.43;0.40;;;3.80;99.90;;;;;;4999046;28;20594;-64
2021/04/05 08:56:56;;;;;;;1.53;0.60;;;3.30;99.90;;;;;;5001526;28;20614;-66
2021/04/05 08:59:45;;;;;;;1.53;0.60;;;3.20;99.90;;;;;;4997471;28;20676;-65
2021/04/05 09:02:34;;;;;;;1.27;0.80;;;3.10;99.90;;;;;;5002074;28;23182;-61
2021/04/05 09:05:01;;;;;;;2.67;0.70;;;3.10;99.90;;;;;;5002592;28;20842;-66
2021/04/05 09:07:34;;;;;;;1.80;0.97;;;3.00;99.90;;;;;;5000280;28;21298;-64
2021/04/05 09:10:06;;;;;;;2.40;1.10;;;3.10;99.90;;;;;;4996961;28;20953;-65
2021/04/05 09:12:34;;;;;;;7.43;1.17;;;3.20;99.90;;;;;;5007371;28;20938;-68
2021/04/05 09:15:32;;;;;;;2.70;0.70;;;3.30;99.90;;;;;;5006998;28;20701;-64
2021/04/05 09:18:38;;;;;;;1.93;0.90;;;3.40;99.90;;;;;;5000520;28;20630;-64
2021/04/05 09:21:28;;;;;;;1.57;1.10;;;3.60;99.90;;;;;;5002168;28;20639;-62
2021/04/05 09:24:24;;;;;;;3.87;1.10;;;3.70;99.90;;;;;;5000352;28;20682;-65
2021/04/05 09:27:24;;;;;;;2.40;1.37;;;3.90;99.90;;;;;;4997615;28;20662;-64
2021/04/05 09:30:13;;;;;;;4.23;1.40;;;3.90;99.90;;;;;;4999573;28;21089;-58
2021/04/05 09:33:07;;;;;;;4.20;1.50;;;3.90;99.90;;;;;;5009640;28;20650;-57
2021/04/05 09:35:55;;;;;;;7.57;1.93;;;3.90;99.90;;;;;;5025649;28;21978;-57
2021/04/05 09:38:42;;;;;;;2.43;2.17;;;4.00;99.90;;;;;;5006017;28;21212;-59
2021/04/05 09:41:35;;;;;;;2.90;1.23;;;4.10;99.90;;;;;;5002255;28;20719;-58
2021/04/05 09:44:25;;;;;;;3.83;1.20;;;4.30;99.90;;;;;;5019201;28;21286;-58
2021/04/05 09:47:19;;;;;;;5.83;1.40;;;4.50;99.90;;;;;;5002568;28;21361;-58
2021/04/05 09:50:04;;;;;;;3.30;1.33;;;4.70;99.90;;;;;;5001657;28;20634;-58
2021/04/05 09:53:07;;;;;;;3.70;1.40;;;4.70;99.90;;;;;;4998872;28;21747;-58
2021/04/05 09:55:47;;;;;;;6.10;1.50;;;4.70;99.90;;;;;;5000699;28;21195;-57
2021/04/05 09:58:35;;;;;;;3.87;1.30;;;4.80;99.90;;;;;;4999788;28;20583;-58
2021/04/05 10:01:09;;;;;;;5.20;1.30;;;4.70;99.90;;;;;;5005137;28;20649;-58
2021/04/05 10:03:43;;;;;;;3.03;1.00;;;4.60;99.90;;;;;;5003119;28;21413;-58
2021/04/05 10:06:12;;;;;;;3.40;2.37;;;4.60;99.90;;;;;;5000939;28;20700;-58
2021/04/05 10:08:38;;;;;;;1.50;1.10;;;4.80;99.90;;;;;;4999147;28;20627;-58
2021/04/05 10:11:05;;;;;;;6.20;1.10;;;5.00;99.90;;;;;;4998841;28;20654;-63
2021/04/05 10:13:33;;;;;;;4.30;1.30;;;5.10;99.90;;;;;;4995929;28;21304;-57
2021/04/05 10:16:00;;;;;;;5.67;1.20;;;5.20;99.90;;;;;;4995800;28;21197;-57
2021/04/05 10:18:27;;;;;;;3.77;1.37;;;5.20;99.90;;;;;;4997817;28;20634;-57
2021/04/05 10:20:54;;;;;;;2.50;1.30;;;5.20;99.90;;;;;;4997016;28;21160;-58
2021/04/05 10:23:24;;;;;;;4.40;1.57;;;5.10;99.90;;;;;;4993227;28;20905;-58
2021/04/05 10:25:56;;;;;;;5.07;1.57;;;5.10;99.90;;;;;;4996748;28;20638;-58
2021/04/05 10:28:22;;;;;;;4.50;1.67;;;5.10;99.90;;;;;;4997808;28;20680;-58
2021/04/05 10:30:55;;;;;;;6.20;1.60;;;5.10;99.90;;;;;;4994097;28;20700;-59
2021/04/05 10:33:28;;;;;;;3.63;1.43;;;5.10;99.90;;;;;;4995236;28;21315;-59
2021/04/05 10:35:58;;;;;;;2.50;1.00;;;5.10;99.90;;;;;;5011841;28;20890;-59
2021/04/05 10:38:24;;;;;;;6.60;1.17;;;5.20;99.90;;;;;;4992990;28;21186;-57
2021/04/05 10:40:52;;;;;;;6.27;1.40;;;5.30;99.90;;;;;;4999655;28;22910;-57
2021/04/05 10:43:32;;;;;;;3.70;1.77;;;5.30;99.90;;;;;;4999650;28;20300;-58
2021/04/05 10:46:05;;;;;;;4.77;1.20;;;5.40;99.90;;;;;;4999448;28;20638;-58
2021/04/05 10:49:09;;;;;;;5.23;1.47;;;5.40;99.90;;;;;;4999412;28;20665;-58
2021/04/05 10:51:44;;;;;;;6.00;1.80;;;5.60;99.90;;;;;;4983392;28;21047;-57
2021/04/05 10:54:31;;;;;;;4.17;1.30;;;5.70;99.90;;;;;;4981787;28;20622;-58
2021/04/05 10:57:02;;;;;;;1.80;1.20;;;5.60;99.90;;;;;;4977572;28;20757;-57
2021/04/05 10:59:33;;;;;;;3.07;1.00;;;5.60;99.90;;;;;;4976762;28;20662;-57
2021/04/05 11:02:08;;;;;;;3.80;1.30;;;5.60;99.90;;;;;;4985212;28;20646;-58
2021/04/05 11:04:35;;;;;;;3.43;1.40;;;5.50;99.90;;;;;;5001602;28;20613;-58
2021/04/05 11:07:03;;;;;;;4.20;1.10;;;5.50;99.90;;;;;;4999125;28;20650;-57
2021/04/05 11:09:35;;;;;;;4.10;1.30;;;5.50;99.90;;;;;;4999192;28;20650;-58
2021/04/05 11:12:01;;;;;;;15.30;9.10;;;5.50;99.90;;;;;;4998724;28;20767;-59
2021/04/05 11:14:27;;;;;;;5.90;2.07;;;5.70;99.90;;;;;;5013942;28;21025;-57
2021/04/05 11:16:58;;;;;;;2.40;1.00;;;5.90;99.90;;;;;;4993097;28;21104;-58
2021/04/05 11:19:51;;;;;;;3.80;1.27;;;6.00;99.90;;;;;;5000527;28;20831;-59
2021/04/05 11:22:19;;;;;;;2.37;1.20;;;5.90;99.90;;;;;;5000180;28;20665;-58
2021/04/05 11:24:54;;;;;;;2.30;0.93;;;5.90;99.90;;;;;;5004569;28;20733;-65
2021/04/05 11:27:27;;;;;;;2.43;1.17;;;5.80;99.90;;;;;;5004764;28;20661;-58
2021/04/05 11:29:55;;;;;;;4.27;1.30;;;5.80;99.90;;;;;;5017632;28;20654;-59
2021/04/05 11:32:24;;;;;;;3.80;1.13;;;5.80;99.90;;;;;;5007523;28;20641;-58
2021/04/05 11:34:55;;;;;;;1.60;0.80;;;5.50;99.90;;;;;;5005318;28;20615;-59
2021/04/05 11:37:21;;;;;;;3.60;1.60;;;5.30;99.90;;;;;;5012523;28;21185;-58
2021/04/05 11:39:58;;;;;;;1.80;1.20;;;5.20;99.90;;;;;;5004614;28;21406;-58
2021/04/05 11:42:32;;;;;;;6.77;1.73;;;5.10;99.90;;;;;;5005802;28;20657;-58
2021/04/05 11:45:02;;;;;;;2.63;1.50;;;5.30;99.90;;;;;;5004962;28;20634;-58
2021/04/05 11:47:34;;;;;;;5.23;1.77;;;5.40;99.90;;;;;;5005739;28;20815;-61
2021/04/05 11:50:02;;;;;;;2.30;1.00;;;5.50;99.90;;;;;;4997419;28;20744;-58
2021/04/05 11:52:42;;;;;;;3.13;1.00;;;5.50;99.90;;;;;;5002156;28;21414;-59
2021/04/05 11:55:10;;;;;;;2.60;1.80;;;5.50;99.90;;;;;;4995599;28;20626;-58
2021/04/05 11:58:00;;;;;;;2.33;1.00;;;5.60;99.90;;;;;;5002238;28;21287;-59
2021/04/05 12:00:30;;;;;;;3.13;0.90;;;5.80;99.90;;;;;;5001321;28;20657;-59
2021/04/05 12:03:27;;;;;;;3.10;1.30;;;5.90;99.90;;;;;;4995914;28;20760;-60
2021/04/05 12:06:04;;;;;;;3.60;1.20;;;6.00;99.90;;;;;;4996073;28;20606;-59
2021/04/05 12:08:53;;;;;;;2.70;1.30;;;6.10;99.90;;;;;;5009246;28;21004;-60
2021/04/05 12:11:22;;;;;;;3.10;1.10;;;6.20;99.90;;;;;;4999595;28;21999;-60
2021/04/05 12:13:53;;;;;;;4.60;1.10;;;6.10;99.90;;;;;;4998996;28;20626;-60
2021/04/05 12:16:26;;;;;;;3.30;1.20;;;5.60;99.90;;;;;;5000445;28;20622;-60
2021/04/05 12:18:53;;;;;;;2.00;1.30;;;5.30;99.90;;;;;;5000565;28;20701;-60
2021/04/05 12:21:30;;;;;;;2.30;1.27;;;4.90;99.90;;;;;;5003437;28;20691;-59
2021/04/05 12:23:58;;;;;;;4.13;0.83;;;5.00;99.90;;;;;;5003134;28;20626;-61
2021/04/05 12:26:26;;;;;;;2.93;0.70;;;4.90;99.90;;;;;;4999274;28;21295;-59
2021/04/05 12:28:53;;;;;;;3.00;1.33;;;4.80;99.90;;;;;;4998545;28;20611;-59
2021/04/05 12:31:24;;;;;;;3.30;1.20;;;5.00;99.90;;;;;;4997827;28;20615;-59
2021/04/05 12:33:55;;;;;;;4.00;1.20;;;5.20;99.90;;;;;;4997026;28;20723;-59
2021/04/05 12:36:29;;;;;;;3.57;1.17;;;5.50;99.90;;;;;;5000713;28;20709;-58
2021/04/05 12:38:55;;;;;;;4.27;1.17;;;5.60;99.90;;;;;;5012577;28;20626;-58
2021/04/05 12:41:23;;;;;;;3.03;1.17;;;5.80;99.90;;;;;;5004006;28;20626;-59
2021/04/05 12:43:52;;;;;;;2.27;0.87;;;5.60;99.90;;;;;;5000138;28;20640;-59
2021/04/05 12:46:19;;;;;;;1.90;0.77;;;5.40;99.90;;;;;;4997148;28;21309;-58
2021/04/05 12:48:46;;;;;;;2.97;1.60;;;5.60;99.90;;;;;;4999462;28;20637;-58
2021/04/05 12:51:16;;;;;;;2.93;1.30;;;5.70;99.90;;;;;;4999644;28;21059;-58
2021/04/05 12:53:44;;;;;;;3.10;1.40;;;5.80;99.90;;;;;;4991740;28;20639;-59
2021/04/05 12:56:18;;;;;;;2.70;1.20;;;5.90;99.90;;;;;;4997055;28;20721;-58
2021/04/05 12:58:44;;;;;;;4.23;1.30;;;5.60;99.90;;;;;;5012299;28;21221;-59
2021/04/05 13:01:10;;;;;;;3.23;1.60;;;5.30;99.90;;;;;;5007009;28;20654;-57
2021/04/05 13:03:43;;;;;;;5.23;1.50;;;5.10;99.90;;;;;;5021022;28;20831;-58
2021/04/05 13:06:11;;;;;;;4.37;1.40;;;4.80;99.90;;;;;;5028924;28;20635;-58
2021/04/05 13:09:18;;;;;;;5.27;1.57;;;4.80;99.90;;;;;;5016418;28;21148;-58
2021/04/05 13:11:57;;;;;;;3.90;1.37;;;4.40;99.90;;;;;;5003153;28;20649;-58
2021/04/05 13:14:33;;;;;;;3.23;1.37;;;4.20;99.90;;;;;;5005586;28;20638;-58
2021/04/05 13:17:12;;;;;;;4.47;0.80;;;3.80;99.90;;;;;;5001479;28;21206;-57
2021/04/05 13:19:42;;;;;;;3.10;1.00;;;3.50;99.90;;;;;;5002076;28;20645;-58
2021/04/05 13:22:17;;;;;;;1.70;0.70;;;3.30;99.90;;;;;;4997885;28;21813;-58
2021/04/05 13:24:51;;;;;;;0.73;0.60;;;3.20;99.90;;;;;;4990297;28;20602;-57
2021/04/05 13:27:25;;;;;;;2.20;0.70;;;3.20;99.90;;;;;;5001311;28;20768;-59
2021/04/05 13:29:53;;;;;;;1.33;0.67;;;3.30;99.90;;;;;;4991839;28;20757;-59
2021/04/05 13:32:33;;;;;;;2.93;0.70;;;3.40;99.90;;;;;;5000265;28;20638;-58
2021/04/05 13:35:01;;;;;;;1.83;0.90;;;4.00;99.90;;;;;;4998558;28;21024;-58
2021/04/05 13:37:33;;;;;;;3.90;0.83;;;4.60;99.90;;;;;;4998743;28;20960;-59
2021/04/05 13:40:00;;;;;;;2.57;1.10;;;5.40;99.90;;;;;;4999715;28;20638;-58
2021/04/05 13:42:30;;;;;;;1.27;0.87;;;6.20;99.90;;;;;;4998216;28;20728;-58
2021/04/05 13:45:08;;;;;;;4.13;0.93;;;6.80;99.90;;;;;;4997099;28;21239;-59
2021/04/05 13:47:40;;;;;;;3.23;1.30;;;7.50;99.90;;;;;;4996061;28;21104;-59
2021/04/05 13:50:07;;;;;;;1.97;0.90;;;7.80;99.90;;;;;;4995440;28;20650;-58